sensor_id;sensor_type;location;lat;lon;timestamp;temperature;humidity
13610;DHT22;6876;50.788;4.940;2022-08-19T00:00:01;18.90;99.90
13610;DHT22;6876;50.788;4.940;2022-08-19T00:02:50;18.90;99.90
13610;DHT22;6876;50.788;4.940;2022-08-19T00:05:38;18.90;99.90
13610;DHT22;6876;50.788;4.940;2022-08-19T00:08:26;19.00;99.90
13610;DHT22;6876;50.788;4.940;2022-08-19T00:11:13;18.90;99.90
13610;DHT22;6876;50.788;4.940;2022-08-19T00:14:00;18.90;99.90
13610;DHT22;6876;50.788;4.940;2022-08-19T00:16:49;18.90;99.90
13610;DHT22;6876;50.788;4.940;2022-08-19T00:19:39;18.90;99.90
13610;DHT22;6876;50.788;4.940;2022-08-19T00:22:26;18.90;99.90
13610;DHT22;6876;50.788;4.940;2022-08-19T00:25:15;18.80;99.90
13610;DHT22;6876;50.788;4.940;2022-08-19T00:28:03;18.70;99.90
13610;DHT22;6876;50.788;4.940;2022-08-19T00:30:50;18.50;99.90
13610;DHT22;6876;50.788;4.940;2022-08-19T00:33:39;18.40;99.90
13610;DHT22;6876;50.788;4.940;2022-08-19T00:36:27;18.40;99.90
13610;DHT22;6876;50.788;4.940;2022-08-19T00:39:16;18.50;99.90
13610;DHT22;6876;50.788;4.940;2022-08-19T00:42:03;18.40;99.90
13610;DHT22;6876;50.788;4.940;2022-08-19T00:44:52;18.20;99.90
13610;DHT22;6876;50.788;4.940;2022-08-19T00:47:39;18.20;99.90
13610;DHT22;6876;50.788;4.940;2022-08-19T00:50:26;18.30;99.90
13610;DHT22;6876;50.788;4.940;2022-08-19T00:53:17;18.40;99.90
13610;DHT22;6876;50.788;4.940;2022-08-19T00:56:06;18.40;99.90
13610;DHT22;6876;50.788;4.940;2022-08-19T00:58:55;18.40;99.90
13610;DHT22;6876;50.788;4.940;2022-08-19T01:01:44;18.30;99.90
13610;DHT22;6876;50.788;4.940;2022-08-19T01:04:32;18.20;99.90
13610;DHT22;6876;50.788;4.940;2022-08-19T01:07:19;18.20;99.90
13610;DHT22;6876;50.788;4.940;2022-08-19T01:10:10;18.20;99.90
13610;DHT22;6876;50.788;4.940;2022-08-19T01:13:00;18.10;99.90
13610;DHT22;6876;50.788;4.940;2022-08-19T01:15:51;18.10;99.90
13610;DHT22;6876;50.788;4.940;2022-08-19T01:18:41;18.20;99.90
13610;DHT22;6876;50.788;4.940;2022-08-19T01:21:32;18.20;99.90
13610;DHT22;6876;50.788;4.940;2022-08-19T01:24:22;18.20;99.90
13610;DHT22;6876;50.788;4.940;2022-08-19T01:27:10;18.20;99.90
13610;DHT22;6876;50.788;4.940;2022-08-19T01:29:57;18.20;99.90
13610;DHT22;6876;50.788;4.940;2022-08-19T01:32:44;18.30;99.90
13610;DHT22;6876;50.788;4.940;2022-08-19T01:35:31;18.30;99.90
13610;DHT22;6876;50.788;4.940;2022-08-19T01:38:22;18.30;99.90
13610;DHT22;6876;50.788;4.940;2022-08-19T01:41:11;18.30;99.90
13610;DHT22;6876;50.788;4.940;2022-08-19T01:43:59;18.30;99.90
13610;DHT22;6876;50.788;4.940;2022-08-19T01:46:48;18.30;99.90
13610;DHT22;6876;50.788;4.940;2022-08-19T01:49:35;18.30;99.90
13610;DHT22;6876;50.788;4.940;2022-08-19T01:52:23;18.30;99.90
13610;DHT22;6876;50.788;4.940;2022-08-19T01:55:13;18.30;99.90
13610;DHT22;6876;50.788;4.940;2022-08-19T01:58:04;18.40;99.90
13610;DHT22;6876;50.788;4.940;2022-08-19T02:00:52;18.30;99.90
13610;DHT22;6876;50.788;4.940;2022-08-19T02:03:39;18.30;99.90
13610;DHT22;6876;50.788;4.940;2022-08-19T02:06:27;18.30;99.90
13610;DHT22;6876;50.788;4.940;2022-08-19T02:09:14;18.30;99.90
13610;DHT22;6876;50.788;4.940;2022-08-19T02:12:03;18.30;99.90
13610;DHT22;6876;50.788;4.940;2022-08-19T02:14:51;18.20;99.90
13610;DHT22;6876;50.788;4.940;2022-08-19T02:17:39;18.30;99.90
13610;DHT22;6876;50.788;4.940;2022-08-19T02:20:26;18.20;99.90
13610;DHT22;6876;50.788;4.940;2022-08-19T02:23:15;18.10;99.90
13610;DHT22;6876;50.788;4.940;2022-08-19T02:26:02;18.20;99.90
13610;DHT22;6876;50.788;4.940;2022-08-19T02:28:49;18.20;99.90
13610;DHT22;6876;50.788;4.940;2022-08-19T02:31:38;18.10;99.90
13610;DHT22;6876;50.788;4.940;2022-08-19T02:34:25;18.00;99.90
13610;DHT22;6876;50.788;4.940;2022-08-19T02:37:12;18.00;99.90
13610;DHT22;6876;50.788;4.940;2022-08-19T02:40:14;17.90;99.90
13610;DHT22;6876;50.788;4.940;2022-08-19T02:43:05;17.90;99.90
13610;DHT22;6876;50.788;4.940;2022-08-19T02:45:53;18.00;99.90
13610;DHT22;6876;50.788;4.940;2022-08-19T02:48:42;18.00;99.90
13610;DHT22;6876;50.788;4.940;2022-08-19T02:51:32;17.90;99.90
13610;DHT22;6876;50.788;4.940;2022-08-19T02:54:20;17.80;99.90
13610;DHT22;6876;50.788;4.940;2022-08-19T02:57:07;17.90;99.90
13610;DHT22;6876;50.788;4.940;2022-08-19T02:59:55;17.80;99.90
13610;DHT22;6876;50.788;4.940;2022-08-19T03:02:42;17.80;99.90
13610;DHT22;6876;50.788;4.940;2022-08-19T03:05:31;17.70;99.90
13610;DHT22;6876;50.788;4.940;2022-08-19T03:08:18;17.70;99.90
13610;DHT22;6876;50.788;4.940;2022-08-19T03:11:06;17.80;99.90
13610;DHT22;6876;50.788;4.940;2022-08-19T03:13:53;17.70;99.90
13610;DHT22;6876;50.788;4.940;2022-08-19T03:16:43;17.80;99.90
13610;DHT22;6876;50.788;4.940;2022-08-19T03:19:31;17.80;99.90
13610;DHT22;6876;50.788;4.940;2022-08-19T03:22:19;17.80;99.90
13610;DHT22;6876;50.788;4.940;2022-08-19T03:25:07;17.80;99.90
13610;DHT22;6876;50.788;4.940;2022-08-19T03:27:55;17.60;99.90
13610;DHT22;6876;50.788;4.940;2022-08-19T03:30:53;17.60;99.90
13610;DHT22;6876;50.788;4.940;2022-08-19T03:33:41;17.70;99.90
13610;DHT22;6876;50.788;4.940;2022-08-19T03:36:29;17.70;99.90
13610;DHT22;6876;50.788;4.940;2022-08-19T03:39:18;17.60;99.90
13610;DHT22;6876;50.788;4.940;2022-08-19T03:42:05;17.60;99.90
13610;DHT22;6876;50.788;4.940;2022-08-19T03:44:52;17.60;99.90
13610;DHT22;6876;50.788;4.940;2022-08-19T03:47:39;17.60;99.90
13610;DHT22;6876;50.788;4.940;2022-08-19T03:50:27;17.50;99.90
13610;DHT22;6876;50.788;4.940;2022-08-19T03:53:15;17.60;99.90
13610;DHT22;6876;50.788;4.940;2022-08-19T03:56:04;17.50;99.90
13610;DHT22;6876;50.788;4.940;2022-08-19T03:58:52;17.50;99.90
13610;DHT22;6876;50.788;4.940;2022-08-19T04:01:39;17.50;99.90
13610;DHT22;6876;50.788;4.940;2022-08-19T04:04:27;17.50;99.90
13610;DHT22;6876;50.788;4.940;2022-08-19T04:07:15;17.50;99.90
13610;DHT22;6876;50.788;4.940;2022-08-19T04:10:04;17.50;99.90
13610;DHT22;6876;50.788;4.940;2022-08-19T04:12:53;17.50;99.90
13610;DHT22;6876;50.788;4.940;2022-08-19T04:15:41;17.40;99.90
13610;DHT22;6876;50.788;4.940;2022-08-19T04:18:28;17.40;99.90
13610;DHT22;6876;50.788;4.940;2022-08-19T04:21:20;17.30;99.90
13610;DHT22;6876;50.788;4.940;2022-08-19T04:24:09;17.30;99.90
13610;DHT22;6876;50.788;4.940;2022-08-19T04:26:58;17.20;99.90
13610;DHT22;6876;50.788;4.940;2022-08-19T04:29:47;17.20;99.90
13610;DHT22;6876;50.788;4.940;2022-08-19T04:32:34;17.30;99.90
13610;DHT22;6876;50.788;4.940;2022-08-19T04:35:21;17.30;99.90
13610;DHT22;6876;50.788;4.940;2022-08-19T04:38:09;17.20;99.90
13610;DHT22;6876;50.788;4.940;2022-08-19T04:40:57;17.20;99.90
13610;DHT22;6876;50.788;4.940;2022-08-19T04:44:02;17.10;99.90
13610;DHT22;6876;50.788;4.940;2022-08-19T04:46:52;17.10;99.90
13610;DHT22;6876;50.788;4.940;2022-08-19T04:49:39;17.10;99.90
13610;DHT22;6876;50.788;4.940;2022-08-19T04:52:27;17.10;99.90
13610;DHT22;6876;50.788;4.940;2022-08-19T04:55:14;17.00;99.90
13610;DHT22;6876;50.788;4.940;2022-08-19T04:58:01;17.10;99.90
13610;DHT22;6876;50.788;4.940;2022-08-19T05:00:48;17.00;99.90
13610;DHT22;6876;50.788;4.940;2022-08-19T05:03:37;17.10;99.90
13610;DHT22;6876;50.788;4.940;2022-08-19T05:06:25;17.10;99.90
13610;DHT22;6876;50.788;4.940;2022-08-19T05:09:12;17.10;99.90
13610;DHT22;6876;50.788;4.940;2022-08-19T05:11:59;17.20;99.90
13610;DHT22;6876;50.788;4.940;2022-08-19T05:14:46;17.20;99.90
13610;DHT22;6876;50.788;4.940;2022-08-19T05:17:35;17.20;99.90
13610;DHT22;6876;50.788;4.940;2022-08-19T05:20:23;17.20;99.90
13610;DHT22;6876;50.788;4.940;2022-08-19T05:23:28;17.20;99.90
13610;DHT22;6876;50.788;4.940;2022-08-19T05:26:16;17.50;99.90
13610;DHT22;6876;50.788;4.940;2022-08-19T05:29:03;17.60;99.90
13610;DHT22;6876;50.788;4.940;2022-08-19T05:31:51;17.70;99.90
13610;DHT22;6876;50.788;4.940;2022-08-19T05:34:38;17.90;99.90
13610;DHT22;6876;50.788;4.940;2022-08-19T05:37:27;18.00;99.90
13610;DHT22;6876;50.788;4.940;2022-08-19T05:40:14;18.00;99.90
13610;DHT22;6876;50.788;4.940;2022-08-19T05:43:02;18.00;99.90
13610;DHT22;6876;50.788;4.940;2022-08-19T05:45:49;17.90;99.90
13610;DHT22;6876;50.788;4.940;2022-08-19T05:48:36;17.90;99.90
13610;DHT22;6876;50.788;4.940;2022-08-19T05:51:24;17.80;99.90
13610;DHT22;6876;50.788;4.940;2022-08-19T05:54:12;17.90;99.90
13610;DHT22;6876;50.788;4.940;2022-08-19T05:57:00;17.90;99.90
13610;DHT22;6876;50.788;4.940;2022-08-19T05:59:48;18.10;99.90
13610;DHT22;6876;50.788;4.940;2022-08-19T06:02:37;18.30;99.90
13610;DHT22;6876;50.788;4.940;2022-08-19T06:05:24;18.70;99.90
13610;DHT22;6876;50.788;4.940;2022-08-19T06:08:11;18.90;99.90
13610;DHT22;6876;50.788;4.940;2022-08-19T06:11:12;19.00;99.90
13610;DHT22;6876;50.788;4.940;2022-08-19T06:14:02;19.20;99.90
13610;DHT22;6876;50.788;4.940;2022-08-19T06:16:50;19.60;99.90
13610;DHT22;6876;50.788;4.940;2022-08-19T06:19:38;20.10;99.90
13610;DHT22;6876;50.788;4.940;2022-08-19T06:22:27;20.30;99.90
13610;DHT22;6876;50.788;4.940;2022-08-19T06:25:15;20.50;99.90
13610;DHT22;6876;50.788;4.940;2022-08-19T06:28:04;20.70;99.90
13610;DHT22;6876;50.788;4.940;2022-08-19T06:30:51;21.00;99.90
13610;DHT22;6876;50.788;4.940;2022-08-19T06:33:38;21.40;99.90
13610;DHT22;6876;50.788;4.940;2022-08-19T06:36:28;21.60;99.90
13610;DHT22;6876;50.788;4.940;2022-08-19T06:39:19;22.10;99.90
13610;DHT22;6876;50.788;4.940;2022-08-19T06:42:07;22.80;99.90
13610;DHT22;6876;50.788;4.940;2022-08-19T06:44:58;23.30;99.90
13610;DHT22;6876;50.788;4.940;2022-08-19T06:47:48;23.60;99.90
13610;DHT22;6876;50.788;4.940;2022-08-19T06:50:35;23.80;99.90
13610;DHT22;6876;50.788;4.940;2022-08-19T06:53:22;24.00;99.90
13610;DHT22;6876;50.788;4.940;2022-08-19T06:56:10;24.00;99.90
13610;DHT22;6876;50.788;4.940;2022-08-19T06:58:59;24.30;99.90
13610;DHT22;6876;50.788;4.940;2022-08-19T07:01:50;24.70;99.90
13610;DHT22;6876;50.788;4.940;2022-08-19T07:04:38;25.00;99.90
13610;DHT22;6876;50.788;4.940;2022-08-19T07:07:25;25.40;99.90
13610;DHT22;6876;50.788;4.940;2022-08-19T07:10:12;25.80;99.90
13610;DHT22;6876;50.788;4.940;2022-08-19T07:12:59;26.00;99.90
13610;DHT22;6876;50.788;4.940;2022-08-19T07:15:47;25.80;99.90
13610;DHT22;6876;50.788;4.940;2022-08-19T07:18:37;26.20;99.90
13610;DHT22;6876;50.788;4.940;2022-08-19T07:21:27;26.40;99.90
13610;DHT22;6876;50.788;4.940;2022-08-19T07:24:15;26.30;99.90
13610;DHT22;6876;50.788;4.940;2022-08-19T07:27:04;25.60;99.90
13610;DHT22;6876;50.788;4.940;2022-08-19T07:29:52;25.00;99.90
13610;DHT22;6876;50.788;4.940;2022-08-19T07:32:39;24.10;99.90
13610;DHT22;6876;50.788;4.940;2022-08-19T07:35:29;23.40;99.90
13610;DHT22;6876;50.788;4.940;2022-08-19T07:38:17;23.00;99.90
13610;DHT22;6876;50.788;4.940;2022-08-19T07:41:05;22.80;99.90
13610;DHT22;6876;50.788;4.940;2022-08-19T07:43:52;23.10;99.90
13610;DHT22;6876;50.788;4.940;2022-08-19T07:46:42;23.40;99.90
13610;DHT22;6876;50.788;4.940;2022-08-19T07:49:30;23.30;99.90
13610;DHT22;6876;50.788;4.940;2022-08-19T07:52:18;23.00;99.90
13610;DHT22;6876;50.788;4.940;2022-08-19T07:55:07;23.20;99.90
13610;DHT22;6876;50.788;4.940;2022-08-19T07:57:54;23.30;99.90
13610;DHT22;6876;50.788;4.940;2022-08-19T08:00:42;23.10;99.90
13610;DHT22;6876;50.788;4.940;2022-08-19T08:03:30;23.10;99.90
13610;DHT22;6876;50.788;4.940;2022-08-19T08:06:38;24.50;99.90
13610;DHT22;6876;50.788;4.940;2022-08-19T08:09:44;26.40;99.90
13610;DHT22;6876;50.788;4.940;2022-08-19T08:12:34;26.80;99.90
13610;DHT22;6876;50.788;4.940;2022-08-19T08:15:21;28.00;99.90
13610;DHT22;6876;50.788;4.940;2022-08-19T08:18:08;27.70;99.90
13610;DHT22;6876;50.788;4.940;2022-08-19T08:20:56;27.70;99.90
13610;DHT22;6876;50.788;4.940;2022-08-19T08:23:43;27.80;99.90
13610;DHT22;6876;50.788;4.940;2022-08-19T08:26:32;27.40;99.90
13610;DHT22;6876;50.788;4.940;2022-08-19T08:29:19;26.90;99.90
13610;DHT22;6876;50.788;4.940;2022-08-19T08:32:06;25.70;99.90
13610;DHT22;6876;50.788;4.940;2022-08-19T08:34:54;24.60;99.90
13610;DHT22;6876;50.788;4.940;2022-08-19T08:37:41;27.00;99.90
13610;DHT22;6876;50.788;4.940;2022-08-19T08:40:32;29.30;99.90
13610;DHT22;6876;50.788;4.940;2022-08-19T08:43:27;30.90;99.90
13610;DHT22;6876;50.788;4.940;2022-08-19T08:46:20;30.40;99.90
13610;DHT22;6876;50.788;4.940;2022-08-19T08:49:20;29.80;99.90
13610;DHT22;6876;50.788;4.940;2022-08-19T08:52:15;27.80;99.90
13610;DHT22;6876;50.788;4.940;2022-08-19T08:55:08;26.10;99.90
13610;DHT22;6876;50.788;4.940;2022-08-19T08:58:00;26.50;99.90
13610;DHT22;6876;50.788;4.940;2022-08-19T09:00:49;26.00;99.90
13610;DHT22;6876;50.788;4.940;2022-08-19T09:03:39;27.60;99.90
13610;DHT22;6876;50.788;4.940;2022-08-19T09:06:34;29.40;99.90
13610;DHT22;6876;50.788;4.940;2022-08-19T09:09:27;30.10;99.90
13610;DHT22;6876;50.788;4.940;2022-08-19T09:12:27;30.30;99.90
13610;DHT22;6876;50.788;4.940;2022-08-19T09:15:29;30.00;99.90
13610;DHT22;6876;50.788;4.940;2022-08-19T09:18:19;31.30;99.90
13610;DHT22;6876;50.788;4.940;2022-08-19T09:21:06;32.20;99.90
13610;DHT22;6876;50.788;4.940;2022-08-19T09:23:54;32.50;99.90
13610;DHT22;6876;50.788;4.940;2022-08-19T09:26:43;31.90;99.90
13610;DHT22;6876;50.788;4.940;2022-08-19T09:29:31;30.20;99.90
13610;DHT22;6876;50.788;4.940;2022-08-19T09:32:18;28.90;99.90
13610;DHT22;6876;50.788;4.940;2022-08-19T09:35:07;29.00;99.90
13610;DHT22;6876;50.788;4.940;2022-08-19T09:37:55;28.30;99.90
13610;DHT22;6876;50.788;4.940;2022-08-19T09:40:43;27.80;99.90
13610;DHT22;6876;50.788;4.940;2022-08-19T09:43:30;27.20;99.90
13610;DHT22;6876;50.788;4.940;2022-08-19T09:46:18;27.10;99.90
13610;DHT22;6876;50.788;4.940;2022-08-19T09:49:06;29.30;99.90
13610;DHT22;6876;50.788;4.940;2022-08-19T09:51:55;30.00;99.90
13610;DHT22;6876;50.788;4.940;2022-08-19T09:54:42;29.00;99.90
13610;DHT22;6876;50.788;4.940;2022-08-19T09:57:29;28.80;99.90
13610;DHT22;6876;50.788;4.940;2022-08-19T10:00:17;27.80;99.90
13610;DHT22;6876;50.788;4.940;2022-08-19T10:03:04;27.80;99.90
13610;DHT22;6876;50.788;4.940;2022-08-19T10:05:53;27.80;99.90
13610;DHT22;6876;50.788;4.940;2022-08-19T10:08:42;27.70;99.90
13610;DHT22;6876;50.788;4.940;2022-08-19T10:11:30;28.40;99.90
13610;DHT22;6876;50.788;4.940;2022-08-19T10:14:17;28.40;99.90
13610;DHT22;6876;50.788;4.940;2022-08-19T10:17:08;28.90;99.90
13610;DHT22;6876;50.788;4.940;2022-08-19T10:19:56;28.40;99.90
13610;DHT22;6876;50.788;4.940;2022-08-19T10:22:43;27.90;99.90
13610;DHT22;6876;50.788;4.940;2022-08-19T10:25:33;27.40;99.90
13610;DHT22;6876;50.788;4.940;2022-08-19T10:28:20;27.10;99.90
13610;DHT22;6876;50.788;4.940;2022-08-19T10:31:12;26.70;99.90
13610;DHT22;6876;50.788;4.940;2022-08-19T10:34:00;26.60;99.90
13610;DHT22;6876;50.788;4.940;2022-08-19T10:36:48;26.20;99.90
13610;DHT22;6876;50.788;4.940;2022-08-19T10:39:36;26.30;99.90
13610;DHT22;6876;50.788;4.940;2022-08-19T10:42:24;25.90;99.90
13610;DHT22;6876;50.788;4.940;2022-08-19T10:45:12;26.00;99.90
13610;DHT22;6876;50.788;4.940;2022-08-19T10:47:59;26.00;99.90
13610;DHT22;6876;50.788;4.940;2022-08-19T10:50:46;26.30;99.90
13610;DHT22;6876;50.788;4.940;2022-08-19T10:53:51;26.70;99.90
13610;DHT22;6876;50.788;4.940;2022-08-19T10:56:38;27.10;99.90
13610;DHT22;6876;50.788;4.940;2022-08-19T10:59:42;26.70;99.90
13610;DHT22;6876;50.788;4.940;2022-08-19T11:02:30;26.40;99.90
13610;DHT22;6876;50.788;4.940;2022-08-19T11:05:19;26.60;99.90
13610;DHT22;6876;50.788;4.940;2022-08-19T11:08:08;26.70;99.90
13610;DHT22;6876;50.788;4.940;2022-08-19T11:11:00;27.00;99.90
13610;DHT22;6876;50.788;4.940;2022-08-19T11:13:49;27.20;99.90
13610;DHT22;6876;50.788;4.940;2022-08-19T11:16:40;27.20;99.90
13610;DHT22;6876;50.788;4.940;2022-08-19T11:19:27;27.00;99.90
13610;DHT22;6876;50.788;4.940;2022-08-19T11:22:15;27.10;99.90
13610;DHT22;6876;50.788;4.940;2022-08-19T11:25:03;27.40;99.90
13610;DHT22;6876;50.788;4.940;2022-08-19T11:27:50;27.80;99.90
13610;DHT22;6876;50.788;4.940;2022-08-19T11:30:38;27.40;99.90
13610;DHT22;6876;50.788;4.940;2022-08-19T11:33:26;27.50;99.90
13610;DHT22;6876;50.788;4.940;2022-08-19T11:36:14;27.40;99.90
13610;DHT22;6876;50.788;4.940;2022-08-19T11:39:03;27.30;99.90
13610;DHT22;6876;50.788;4.940;2022-08-19T11:41:51;27.40;99.90
13610;DHT22;6876;50.788;4.940;2022-08-19T11:44:38;27.10;99.90
13610;DHT22;6876;50.788;4.940;2022-08-19T11:47:25;26.80;99.90
13610;DHT22;6876;50.788;4.940;2022-08-19T11:50:14;26.90;99.90
13610;DHT22;6876;50.788;4.940;2022-08-19T11:53:02;26.50;99.90
13610;DHT22;6876;50.788;4.940;2022-08-19T11:55:50;26.30;99.90
13610;DHT22;6876;50.788;4.940;2022-08-19T11:58:40;26.40;99.90
13610;DHT22;6876;50.788;4.940;2022-08-19T12:01:27;26.30;99.90
13610;DHT22;6876;50.788;4.940;2022-08-19T12:04:15;26.60;99.90
13610;DHT22;6876;50.788;4.940;2022-08-19T12:07:03;26.30;99.90
13610;DHT22;6876;50.788;4.940;2022-08-19T12:09:50;26.00;99.90
13610;DHT22;6876;50.788;4.940;2022-08-19T12:12:38;25.70;99.90
13610;DHT22;6876;50.788;4.940;2022-08-19T12:15:28;25.60;99.90
13610;DHT22;6876;50.788;4.940;2022-08-19T12:18:15;25.60;99.90
13610;DHT22;6876;50.788;4.940;2022-08-19T12:21:02;25.50;99.90
13610;DHT22;6876;50.788;4.940;2022-08-19T12:23:51;25.40;99.90
13610;DHT22;6876;50.788;4.940;2022-08-19T12:26:38;25.40;99.90
13610;DHT22;6876;50.788;4.940;2022-08-19T12:29:26;25.30;99.90
13610;DHT22;6876;50.788;4.940;2022-08-19T12:32:15;25.50;99.90
13610;DHT22;6876;50.788;4.940;2022-08-19T12:35:03;25.70;99.90
13610;DHT22;6876;50.788;4.940;2022-08-19T12:37:50;25.70;99.90
13610;DHT22;6876;50.788;4.940;2022-08-19T12:40:39;25.70;99.90
13610;DHT22;6876;50.788;4.940;2022-08-19T12:43:28;25.80;99.90
13610;DHT22;6876;50.788;4.940;2022-08-19T12:46:16;26.00;99.90
13610;DHT22;6876;50.788;4.940;2022-08-19T12:49:04;26.10;99.90
13610;DHT22;6876;50.788;4.940;2022-08-19T12:51:51;26.10;99.90
13610;DHT22;6876;50.788;4.940;2022-08-19T12:54:38;26.00;99.90
13610;DHT22;6876;50.788;4.940;2022-08-19T12:57:28;26.00;99.90
13610;DHT22;6876;50.788;4.940;2022-08-19T13:00:20;25.90;99.90
13610;DHT22;6876;50.788;4.940;2022-08-19T13:03:07;25.70;99.90
13610;DHT22;6876;50.788;4.940;2022-08-19T13:05:55;25.60;99.90
13610;DHT22;6876;50.788;4.940;2022-08-19T13:08:42;25.60;99.90
13610;DHT22;6876;50.788;4.940;2022-08-19T13:11:29;25.80;99.90
13610;DHT22;6876;50.788;4.940;2022-08-19T13:14:19;26.20;99.90
13610;DHT22;6876;50.788;4.940;2022-08-19T13:17:06;26.50;99.90
13610;DHT22;6876;50.788;4.940;2022-08-19T13:19:54;26.70;99.90
13610;DHT22;6876;50.788;4.940;2022-08-19T13:22:41;26.60;99.90
13610;DHT22;6876;50.788;4.940;2022-08-19T13:25:30;26.70;99.90
13610;DHT22;6876;50.788;4.940;2022-08-19T13:28:17;27.00;99.90
13610;DHT22;6876;50.788;4.940;2022-08-19T13:31:06;27.00;99.90
13610;DHT22;6876;50.788;4.940;2022-08-19T13:34:07;26.80;99.90
13610;DHT22;6876;50.788;4.940;2022-08-19T13:36:55;26.60;99.90
13610;DHT22;6876;50.788;4.940;2022-08-19T13:39:42;26.70;99.90
13610;DHT22;6876;50.788;4.940;2022-08-19T13:42:30;27.10;99.90
13610;DHT22;6876;50.788;4.940;2022-08-19T13:45:20;27.30;99.90
13610;DHT22;6876;50.788;4.940;2022-08-19T13:48:09;27.10;99.90
13610;DHT22;6876;50.788;4.940;2022-08-19T13:50:56;27.10;99.90
13610;DHT22;6876;50.788;4.940;2022-08-19T13:53:44;27.00;99.90
13610;DHT22;6876;50.788;4.940;2022-08-19T13:56:31;27.00;99.90
13610;DHT22;6876;50.788;4.940;2022-08-19T13:59:19;27.10;99.90
13610;DHT22;6876;50.788;4.940;2022-08-19T14:02:06;27.10;99.90
13610;DHT22;6876;50.788;4.940;2022-08-19T14:04:55;26.80;99.90
13610;DHT22;6876;50.788;4.940;2022-08-19T14:07:43;27.00;99.90
13610;DHT22;6876;50.788;4.940;2022-08-19T14:10:31;27.10;99.90
13610;DHT22;6876;50.788;4.940;2022-08-19T14:13:21;27.10;99.90
13610;DHT22;6876;50.788;4.940;2022-08-19T14:16:09;27.10;99.90
13610;DHT22;6876;50.788;4.940;2022-08-19T14:18:57;27.20;99.90
13610;DHT22;6876;50.788;4.940;2022-08-19T14:21:46;27.40;99.90
13610;DHT22;6876;50.788;4.940;2022-08-19T14:24:33;27.20;99.90
13610;DHT22;6876;50.788;4.940;2022-08-19T14:27:20;27.00;99.90
13610;DHT22;6876;50.788;4.940;2022-08-19T14:30:13;26.90;99.90
13610;DHT22;6876;50.788;4.940;2022-08-19T14:33:01;26.90;99.90
13610;DHT22;6876;50.788;4.940;2022-08-19T14:35:49;27.00;99.90
13610;DHT22;6876;50.788;4.940;2022-08-19T14:38:37;27.00;99.90
13610;DHT22;6876;50.788;4.940;2022-08-19T14:41:25;26.90;99.90
13610;DHT22;6876;50.788;4.940;2022-08-19T14:44:12;26.70;99.90
13610;DHT22;6876;50.788;4.940;2022-08-19T14:47:00;26.70;99.90
13610;DHT22;6876;50.788;4.940;2022-08-19T14:49:47;26.70;99.90
13610;DHT22;6876;50.788;4.940;2022-08-19T14:52:34;26.70;99.90
13610;DHT22;6876;50.788;4.940;2022-08-19T14:55:22;26.50;99.90
13610;DHT22;6876;50.788;4.940;2022-08-19T14:58:10;26.30;99.90
13610;DHT22;6876;50.788;4.940;2022-08-19T15:00:58;26.10;99.90
13610;DHT22;6876;50.788;4.940;2022-08-19T15:03:46;26.00;99.90
13610;DHT22;6876;50.788;4.940;2022-08-19T15:06:34;26.00;99.90
13610;DHT22;6876;50.788;4.940;2022-08-19T15:09:21;26.20;99.90
13610;DHT22;6876;50.788;4.940;2022-08-19T15:12:10;26.00;99.90
13610;DHT22;6876;50.788;4.940;2022-08-19T15:14:57;25.80;99.90
13610;DHT22;6876;50.788;4.940;2022-08-19T15:17:45;25.70;99.90
13610;DHT22;6876;50.788;4.940;2022-08-19T15:20:32;25.50;99.90
13610;DHT22;6876;50.788;4.940;2022-08-19T15:23:20;25.50;99.90
13610;DHT22;6876;50.788;4.940;2022-08-19T15:26:08;25.50;99.90
13610;DHT22;6876;50.788;4.940;2022-08-19T15:28:57;25.40;99.90
13610;DHT22;6876;50.788;4.940;2022-08-19T15:31:45;25.30;99.90
13610;DHT22;6876;50.788;4.940;2022-08-19T15:34:32;25.30;99.90
13610;DHT22;6876;50.788;4.940;2022-08-19T15:37:20;25.20;99.90
13610;DHT22;6876;50.788;4.940;2022-08-19T15:40:09;25.00;99.90
13610;DHT22;6876;50.788;4.940;2022-08-19T15:42:56;24.80;99.90
13610;DHT22;6876;50.788;4.940;2022-08-19T15:45:46;24.70;99.90
13610;DHT22;6876;50.788;4.940;2022-08-19T15:48:33;24.60;99.90
13610;DHT22;6876;50.788;4.940;2022-08-19T15:51:21;24.60;99.90
13610;DHT22;6876;50.788;4.940;2022-08-19T15:54:10;24.60;99.90
13610;DHT22;6876;50.788;4.940;2022-08-19T15:56:58;24.70;99.90
13610;DHT22;6876;50.788;4.940;2022-08-19T16:00:03;24.80;99.90
13610;DHT22;6876;50.788;4.940;2022-08-19T16:03:12;24.60;99.90
13610;DHT22;6876;50.788;4.940;2022-08-19T16:06:17;24.50;99.90
13610;DHT22;6876;50.788;4.940;2022-08-19T16:09:15;24.50;99.90
13610;DHT22;6876;50.788;4.940;2022-08-19T16:12:04;24.60;99.90
13610;DHT22;6876;50.788;4.940;2022-08-19T16:14:52;24.50;99.90
13610;DHT22;6876;50.788;4.940;2022-08-19T16:17:39;24.60;99.90
13610;DHT22;6876;50.788;4.940;2022-08-19T16:20:28;24.90;99.90
13610;DHT22;6876;50.788;4.940;2022-08-19T16:23:16;25.30;99.90
13610;DHT22;6876;50.788;4.940;2022-08-19T16:26:03;25.40;99.90
13610;DHT22;6876;50.788;4.940;2022-08-19T16:28:50;25.30;99.90
13610;DHT22;6876;50.788;4.940;2022-08-19T16:31:38;25.40;99.90
13610;DHT22;6876;50.788;4.940;2022-08-19T16:34:25;25.40;99.90
13610;DHT22;6876;50.788;4.940;2022-08-19T16:37:14;25.40;99.90
13610;DHT22;6876;50.788;4.940;2022-08-19T16:40:03;25.40;99.90
13610;DHT22;6876;50.788;4.940;2022-08-19T16:42:51;25.40;99.90
13610;DHT22;6876;50.788;4.940;2022-08-19T16:45:38;25.20;99.90
13610;DHT22;6876;50.788;4.940;2022-08-19T16:48:28;25.00;99.90
13610;DHT22;6876;50.788;4.940;2022-08-19T16:51:17;25.00;99.90
13610;DHT22;6876;50.788;4.940;2022-08-19T16:54:06;25.00;99.90
13610;DHT22;6876;50.788;4.940;2022-08-19T16:56:54;25.30;99.90
13610;DHT22;6876;50.788;4.940;2022-08-19T16:59:41;25.10;99.90
13610;DHT22;6876;50.788;4.940;2022-08-19T17:02:29;24.90;99.90
13610;DHT22;6876;50.788;4.940;2022-08-19T17:05:16;24.80;99.90
13610;DHT22;6876;50.788;4.940;2022-08-19T17:08:04;24.80;99.90
13610;DHT22;6876;50.788;4.940;2022-08-19T17:10:53;24.80;99.90
13610;DHT22;6876;50.788;4.940;2022-08-19T17:13:41;24.80;99.90
13610;DHT22;6876;50.788;4.940;2022-08-19T17:16:31;24.60;99.90
13610;DHT22;6876;50.788;4.940;2022-08-19T17:19:18;24.50;99.90
13610;DHT22;6876;50.788;4.940;2022-08-19T17:22:06;24.40;99.90
13610;DHT22;6876;50.788;4.940;2022-08-19T17:24:53;24.40;99.90
13610;DHT22;6876;50.788;4.940;2022-08-19T17:27:41;24.40;99.90
13610;DHT22;6876;50.788;4.940;2022-08-19T17:30:29;24.40;99.90
13610;DHT22;6876;50.788;4.940;2022-08-19T17:33:16;24.50;99.90
13610;DHT22;6876;50.788;4.940;2022-08-19T17:36:04;24.40;99.90
13610;DHT22;6876;50.788;4.940;2022-08-19T17:38:56;24.30;99.90
13610;DHT22;6876;50.788;4.940;2022-08-19T17:41:45;24.20;99.90
13610;DHT22;6876;50.788;4.940;2022-08-19T17:44:33;24.20;99.90
13610;DHT22;6876;50.788;4.940;2022-08-19T17:47:21;24.10;99.90
13610;DHT22;6876;50.788;4.940;2022-08-19T17:50:10;24.00;99.90
13610;DHT22;6876;50.788;4.940;2022-08-19T17:52:58;23.90;99.90
13610;DHT22;6876;50.788;4.940;2022-08-19T17:55:45;23.90;99.90
13610;DHT22;6876;50.788;4.940;2022-08-19T17:58:33;23.90;99.90
13610;DHT22;6876;50.788;4.940;2022-08-19T18:01:21;23.90;99.90